sensor_id;sensor_type;location;lat;lon;timestamp;pressure;altitude;pressure_sealevel;temperature;humidity
71772;BME280;59606;52.138;5.424;2023-08-12T00:00:32;101828.31;;;21.10;92.18
71772;BME280;59606;52.138;5.424;2023-08-12T00:03:02;101824.69;;;21.11;92.03
71772;BME280;59606;52.138;5.424;2023-08-12T00:05:31;101834.44;;;21.10;92.44
71772;BME280;59606;52.138;5.424;2023-08-12T00:07:59;101834.72;;;21.07;92.18
71772;BME280;59606;52.138;5.424;2023-08-12T00:10:26;101834.81;;;21.06;92.95
71772;BME280;59606;52.138;5.424;2023-08-12T00:12:52;101823.53;;;21.04;92.83
71772;BME280;59606;52.138;5.424;2023-08-12T00:15:19;101824.34;;;21.04;93.02
71772;BME280;59606;52.138;5.424;2023-08-12T00:17:45;101830.75;;;21.02;92.94
71772;BME280;59606;52.138;5.424;2023-08-12T00:20:12;101831.84;;;20.99;93.21
71772;BME280;59606;52.138;5.424;2023-08-12T00:22:39;101830.31;;;20.97;93.29
71772;BME280;59606;52.138;5.424;2023-08-12T00:25:06;101821.53;;;20.96;93.00
71772;BME280;59606;52.138;5.424;2023-08-12T00:27:33;101819.81;;;20.95;93.24
71772;BME280;59606;52.138;5.424;2023-08-12T00:30:00;101828.03;;;20.92;93.35
71772;BME280;59606;52.138;5.424;2023-08-12T00:32:26;101823.69;;;20.91;93.41
71772;BME280;59606;52.138;5.424;2023-08-12T00:34:53;101813.34;;;20.88;93.21
71772;BME280;59606;52.138;5.424;2023-08-12T00:37:19;101812.53;;;20.87;93.42
71772;BME280;59606;52.138;5.424;2023-08-12T00:39:46;101809.28;;;20.84;93.87
71772;BME280;59606;52.138;5.424;2023-08-12T00:42:13;101808.44;;;20.83;94.00
71772;BME280;59606;52.138;5.424;2023-08-12T00:44:39;101798.94;;;20.81;94.26
71772;BME280;59606;52.138;5.424;2023-08-12T00:47:06;101797.28;;;20.80;94.04
71772;BME280;59606;52.138;5.424;2023-08-12T00:49:33;101793.78;;;20.79;94.06
71772;BME280;59606;52.138;5.424;2023-08-12T00:52:00;101792.09;;;20.78;94.12
71772;BME280;59606;52.138;5.424;2023-08-12T00:54:27;101791.50;;;20.75;94.90
71772;BME280;59606;52.138;5.424;2023-08-12T00:56:54;101787.44;;;20.70;95.13
71772;BME280;59606;52.138;5.424;2023-08-12T00:59:21;101787.44;;;20.70;95.01
71772;BME280;59606;52.138;5.424;2023-08-12T01:01:48;101786.97;;;20.65;95.30
71772;BME280;59606;52.138;5.424;2023-08-12T01:04:15;101789.16;;;20.60;95.60
71772;BME280;59606;52.138;5.424;2023-08-12T01:06:42;101775.34;;;20.57;95.99
71772;BME280;59606;52.138;5.424;2023-08-12T01:09:09;101777.41;;;20.53;96.28
71772;BME280;59606;52.138;5.424;2023-08-12T01:17:14;101769.78;;;20.48;96.51
71772;BME280;59606;52.138;5.424;2023-08-12T01:19:42;101769.09;;;20.46;96.58
71772;BME280;59606;52.138;5.424;2023-08-12T01:22:11;101779.09;;;20.43;96.48
71772;BME280;59606;52.138;5.424;2023-08-12T01:24:42;101767.06;;;20.39;96.75
71772;BME280;59606;52.138;5.424;2023-08-12T01:27:11;101768.41;;;20.33;97.49
71772;BME280;59606;52.138;5.424;2023-08-12T01:29:41;101759.03;;;20.29;97.26
71772;BME280;59606;52.138;5.424;2023-08-12T01:37:33;101755.53;;;20.29;97.10
71772;BME280;59606;52.138;5.424;2023-08-12T01:40:02;101751.94;;;20.30;97.42
71772;BME280;59606;52.138;5.424;2023-08-12T01:42:33;101746.75;;;20.28;97.66
71772;BME280;59606;52.138;5.424;2023-08-12T01:45:00;101744.09;;;20.28;97.62
71772;BME280;59606;52.138;5.424;2023-08-12T01:47:30;101739.66;;;20.29;98.19
71772;BME280;59606;52.138;5.424;2023-08-12T01:49:56;101740.50;;;20.29;98.60
71772;BME280;59606;52.138;5.424;2023-08-12T01:52:24;101733.50;;;20.28;98.83
71772;BME280;59606;52.138;5.424;2023-08-12T01:54:51;101734.50;;;20.27;98.71
71772;BME280;59606;52.138;5.424;2023-08-12T01:57:17;101731.00;;;20.27;98.81
71772;BME280;59606;52.138;5.424;2023-08-12T01:59:44;101728.47;;;20.25;98.88
71772;BME280;59606;52.138;5.424;2023-08-12T02:02:11;101725.81;;;20.25;98.86
71772;BME280;59606;52.138;5.424;2023-08-12T02:04:40;101722.22;;;20.26;98.92
71772;BME280;59606;52.138;5.424;2023-08-12T02:07:06;101728.38;;;20.27;99.17
71772;BME280;59606;52.138;5.424;2023-08-12T02:09:33;101722.22;;;20.26;99.24
71772;BME280;59606;52.138;5.424;2023-08-12T02:11:59;101715.13;;;20.27;99.41
71772;BME280;59606;52.138;5.424;2023-08-12T02:14:26;101713.47;;;20.25;99.52
71772;BME280;59606;52.138;5.424;2023-08-12T02:16:52;101711.75;;;20.24;99.79
71772;BME280;59606;52.138;5.424;2023-08-12T02:19:19;101715.47;;;20.22;99.75
71772;BME280;59606;52.138;5.424;2023-08-12T02:21:46;101709.34;;;20.21;100.00
71772;BME280;59606;52.138;5.424;2023-08-12T02:24:12;101709.34;;;20.21;100.00
71772;BME280;59606;52.138;5.424;2023-08-12T02:26:39;101700.59;;;20.21;100.00
71772;BME280;59606;52.138;5.424;2023-08-12T02:29:05;101712.16;;;20.20;100.00
71772;BME280;59606;52.138;5.424;2023-08-12T02:31:32;101697.25;;;20.19;100.00
71772;BME280;59606;52.138;5.424;2023-08-12T02:33:58;101696.63;;;20.15;100.00
71772;BME280;59606;52.138;5.424;2023-08-12T02:36:25;101697.50;;;20.16;100.00
71772;BME280;59606;52.138;5.424;2023-08-12T02:38:53;101701.09;;;20.15;100.00
71772;BME280;59606;52.138;5.424;2023-08-12T02:41:19;101693.16;;;20.15;100.00
71772;BME280;59606;52.138;5.424;2023-08-12T02:43:46;101694.72;;;20.17;100.00
71772;BME280;59606;52.138;5.424;2023-08-12T02:46:12;101697.25;;;20.19;100.00
71772;BME280;59606;52.138;5.424;2023-08-12T02:48:42;101692.06;;;20.17;100.00
71772;BME280;59606;52.138;5.424;2023-08-12T02:51:09;101693.72;;;20.18;100.00
71772;BME280;59606;52.138;5.424;2023-08-12T02:53:36;101689.41;;;20.17;100.00
71772;BME280;59606;52.138;5.424;2023-08-12T02:56:03;101679.91;;;20.15;100.00
71772;BME280;59606;52.138;5.424;2023-08-12T02:58:29;101681.72;;;20.14;100.00
71772;BME280;59606;52.138;5.424;2023-08-12T03:00:56;101678.97;;;20.16;100.00
71772;BME280;59606;52.138;5.424;2023-08-12T03:03:23;101672.81;;;20.15;100.00
71772;BME280;59606;52.138;5.424;2023-08-12T03:05:49;101671.88;;;20.16;100.00
71772;BME280;59606;52.138;5.424;2023-08-12T03:08:16;101669.22;;;20.16;100.00
71772;BME280;59606;52.138;5.424;2023-08-12T03:10:44;101666.56;;;20.16;100.00
71772;BME280;59606;52.138;5.424;2023-08-12T03:13:11;101672.81;;;20.15;100.00
71772;BME280;59606;52.138;5.424;2023-08-12T03:15:40;101665.59;;;20.17;100.00
71772;BME280;59606;52.138;5.424;2023-08-12T03:18:08;101663.09;;;20.16;100.00
71772;BME280;59606;52.138;5.424;2023-08-12T03:20:34;101667.53;;;20.15;100.00
71772;BME280;59606;52.138;5.424;2023-08-12T03:23:01;101652.50;;;20.16;100.00
71772;BME280;59606;52.138;5.424;2023-08-12T03:25:27;101659.47;;;20.17;100.00
71772;BME280;59606;52.138;5.424;2023-08-12T03:27:54;101651.53;;;20.17;100.00
71772;BME280;59606;52.138;5.424;2023-08-12T03:30:21;101655.28;;;20.14;100.00
71772;BME280;59606;52.138;5.424;2023-08-12T03:32:47;101657.06;;;20.14;100.00
71772;BME280;59606;52.138;5.424;2023-08-12T03:35:14;101648.16;;;20.15;100.00
71772;BME280;59606;52.138;5.424;2023-08-12T03:37:44;101646.34;;;20.15;100.00
71772;BME280;59606;52.138;5.424;2023-08-12T03:40:11;101641.94;;;20.16;100.00
71772;BME280;59606;52.138;5.424;2023-08-12T03:42:37;101639.16;;;20.17;100.00
71772;BME280;59606;52.138;5.424;2023-08-12T03:45:04;101631.22;;;20.17;100.00
71772;BME280;59606;52.138;5.424;2023-08-12T03:47:31;101626.75;;;20.18;100.00
71772;BME280;59606;52.138;5.424;2023-08-12T03:49:57;101627.59;;;20.18;100.00
71772;BME280;59606;52.138;5.424;2023-08-12T03:52:24;101624.94;;;20.18;100.00
71772;BME280;59606;52.138;5.424;2023-08-12T03:54:50;101622.19;;;20.20;100.00
71772;BME280;59606;52.138;5.424;2023-08-12T03:57:19;101622.88;;;20.22;100.00
71772;BME280;59606;52.138;5.424;2023-08-12T03:59:45;101616.75;;;20.21;100.00
71772;BME280;59606;52.138;5.424;2023-08-12T04:02:12;101609.78;;;20.20;100.00
71772;BME280;59606;52.138;5.424;2023-08-12T04:04:38;101613.25;;;20.21;100.00
71772;BME280;59606;52.138;5.424;2023-08-12T04:07:05;101610.63;;;20.21;100.00
71772;BME280;59606;52.138;5.424;2023-08-12T04:09:31;101606.31;;;20.20;100.00
71772;BME280;59606;52.138;5.424;2023-08-12T04:11:58;101601.84;;;20.20;100.00
71772;BME280;59606;52.138;5.424;2023-08-12T04:14:24;101596.69;;;20.19;100.00
71772;BME280;59606;52.138;5.424;2023-08-12T04:16:51;101595.72;;;20.20;100.00
71772;BME280;59606;52.138;5.424;2023-08-12T04:19:18;101588.88;;;20.17;100.00
71772;BME280;59606;52.138;5.424;2023-08-12T04:21:44;101595.13;;;20.16;100.00
71772;BME280;59606;52.138;5.424;2023-08-12T04:24:13;101601.25;;;20.17;100.00
71772;BME280;59606;52.138;5.424;2023-08-12T04:26:39;101595.25;;;20.15;100.00
71772;BME280;59606;52.138;5.424;2023-08-12T04:29:06;101597.31;;;20.11;100.00
71772;BME280;59606;52.138;5.424;2023-08-12T04:31:33;101596.22;;;20.14;100.00
71772;BME280;59606;52.138;5.424;2023-08-12T04:33:59;101594.31;;;20.16;100.00
71772;BME280;59606;52.138;5.424;2023-08-12T04:36:26;101593.19;;;20.18;100.00
71772;BME280;59606;52.138;5.424;2023-08-12T04:38:53;101590.44;;;20.20;100.00
71772;BME280;59606;52.138;5.424;2023-08-12T04:41:19;101585.00;;;20.21;100.00
71772;BME280;59606;52.138;5.424;2023-08-12T04:43:46;101571.66;;;20.23;100.00
71772;BME280;59606;52.138;5.424;2023-08-12T04:46:12;101568.75;;;20.26;100.00
71772;BME280;59606;52.138;5.424;2023-08-12T04:48:39;101558.03;;;20.28;100.00
71772;BME280;59606;52.138;5.424;2023-08-12T04:51:06;101547.19;;;20.31;100.00
71772;BME280;59606;52.138;5.424;2023-08-12T04:53:33;101548.84;;;20.32;100.00
71772;BME280;59606;52.138;5.424;2023-08-12T04:55:59;101543.56;;;20.32;100.00
71772;BME280;59606;52.138;5.424;2023-08-12T04:58:26;101551.50;;;20.32;100.00
71772;BME280;59606;52.138;5.424;2023-08-12T05:00:52;101543.56;;;20.32;100.00
71772;BME280;59606;52.138;5.424;2023-08-12T05:03:19;101538.25;;;20.32;100.00
71772;BME280;59606;52.138;5.424;2023-08-12T05:05:50;101545.25;;;20.33;100.00
71772;BME280;59606;52.138;5.424;2023-08-12T05:08:17;101541.88;;;20.31;100.00
71772;BME280;59606;52.138;5.424;2023-08-12T05:10:44;101530.31;;;20.32;100.00
71772;BME280;59606;52.138;5.424;2023-08-12T05:13:13;101531.31;;;20.31;100.00
71772;BME280;59606;52.138;5.424;2023-08-12T05:15:39;101534.94;;;20.30;100.00
71772;BME280;59606;52.138;5.424;2023-08-12T05:18:06;101537.69;;;20.28;100.00
71772;BME280;59606;52.138;5.424;2023-08-12T05:20:33;101548.28;;;20.28;100.00
71772;BME280;59606;52.138;5.424;2023-08-12T05:22:59;101545.78;;;20.27;100.00
71772;BME280;59606;52.138;5.424;2023-08-12T05:25:26;101548.41;;;20.27;100.00
71772;BME280;59606;52.138;5.424;2023-08-12T05:27:52;101546.59;;;20.27;100.00
71772;BME280;59606;52.138;5.424;2023-08-12T05:30:19;101542.03;;;20.29;100.00
71772;BME280;59606;52.138;5.424;2023-08-12T05:32:45;101541.16;;;20.29;100.00
71772;BME280;59606;52.138;5.424;2023-08-12T05:35:12;101545.63;;;20.28;100.00
71772;BME280;59606;52.138;5.424;2023-08-12T05:37:38;101542.03;;;20.29;100.00
71772;BME280;59606;52.138;5.424;2023-08-12T05:40:05;101542.88;;;20.30;100.00
71772;BME280;59606;52.138;5.424;2023-08-12T05:42:35;101542.88;;;20.30;100.00
71772;BME280;59606;52.138;5.424;2023-08-12T05:45:03;101542.72;;;20.31;100.00
71772;BME280;59606;52.138;5.424;2023-08-12T05:47:33;101547.06;;;20.32;100.00
71772;BME280;59606;52.138;5.424;2023-08-12T05:50:00;101539.13;;;20.32;100.00
71772;BME280;59606;52.138;5.424;2023-08-12T05:52:27;101541.88;;;20.31;100.00
71772;BME280;59606;52.138;5.424;2023-08-12T05:54:53;101542.03;;;20.29;100.00
71772;BME280;59606;52.138;5.424;2023-08-12T05:57:20;101541.31;;;20.27;100.00
71772;BME280;59606;52.138;5.424;2023-08-12T05:59:46;101534.34;;;20.26;100.00
71772;BME280;59606;52.138;5.424;2023-08-12T06:02:13;101531.81;;;20.24;100.00
71772;BME280;59606;52.138;5.424;2023-08-12T06:04:40;101538.81;;;20.25;100.00
71772;BME280;59606;52.138;5.424;2023-08-12T06:07:06;101536.41;;;20.22;100.00
71772;BME280;59606;52.138;5.424;2023-08-12T06:09:33;101539.31;;;20.19;100.00
71772;BME280;59606;52.138;5.424;2023-08-12T06:11:59;101535.97;;;20.17;100.00
71772;BME280;59606;52.138;5.424;2023-08-12T06:14:26;101535.13;;;20.17;100.00
71772;BME280;59606;52.138;5.424;2023-08-12T06:16:52;101533.31;;;20.17;100.00
71772;BME280;59606;52.138;5.424;2023-08-12T06:19:22;101544.72;;;20.18;100.00
71772;BME280;59606;52.138;5.424;2023-08-12T06:21:48;101533.31;;;20.17;100.00
71772;BME280;59606;52.138;5.424;2023-08-12T06:24:15;101532.47;;;20.17;100.00
71772;BME280;59606;52.138;5.424;2023-08-12T06:26:41;101538.75;;;20.16;100.00
71772;BME280;59606;52.138;5.424;2023-08-12T06:29:08;101538.84;;;20.14;100.00
71772;BME280;59606;52.138;5.424;2023-08-12T06:31:35;101533.00;;;20.11;100.00
71772;BME280;59606;52.138;5.424;2023-08-12T06:34:01;101536.59;;;20.10;100.00
71772;BME280;59606;52.138;5.424;2023-08-12T06:36:28;101549.84;;;20.10;100.00
71772;BME280;59606;52.138;5.424;2023-08-12T06:38:54;101548.16;;;20.09;100.00
71772;BME280;59606;52.138;5.424;2023-08-12T06:41:21;101544.81;;;20.07;100.00
71772;BME280;59606;52.138;5.424;2023-08-12T06:43:47;101543.97;;;20.06;100.00
71772;BME280;59606;52.138;5.424;2023-08-12T06:46:14;101551.31;;;20.02;100.00
71772;BME280;59606;52.138;5.424;2023-08-12T06:48:40;101545.44;;;19.99;100.00
71772;BME280;59606;52.138;5.424;2023-08-12T06:51:07;101533.31;;;19.96;100.00
71772;BME280;59606;52.138;5.424;2023-08-12T06:53:38;101538.72;;;19.95;100.00
71772;BME280;59606;52.138;5.424;2023-08-12T06:56:05;101522.25;;;19.91;100.00
71772;BME280;59606;52.138;5.424;2023-08-12T06:58:32;101527.56;;;19.91;100.00
71772;BME280;59606;52.138;5.424;2023-08-12T07:00:58;101520.34;;;19.93;100.00
71772;BME280;59606;52.138;5.424;2023-08-12T07:03:27;101531.66;;;19.95;100.00
71772;BME280;59606;52.138;5.424;2023-08-12T07:05:54;101528.13;;;19.95;100.00
71772;BME280;59606;52.138;5.424;2023-08-12T07:08:21;101522.16;;;19.93;100.00
71772;BME280;59606;52.138;5.424;2023-08-12T07:10:47;101523.81;;;19.94;100.00
71772;BME280;59606;52.138;5.424;2023-08-12T07:13:14;101517.44;;;19.96;100.00
71772;BME280;59606;52.138;5.424;2023-08-12T07:15:40;101516.72;;;19.94;100.00
71772;BME280;59606;52.138;5.424;2023-08-12T07:18:07;101505.56;;;19.91;100.00
71772;BME280;59606;52.138;5.424;2023-08-12T07:20:33;101515.31;;;19.90;100.00
71772;BME280;59606;52.138;5.424;2023-08-12T07:23:00;101513.63;;;19.89;100.00
71772;BME280;59606;52.138;5.424;2023-08-12T07:25:26;101503.75;;;19.91;100.00
71772;BME280;59606;52.138;5.424;2023-08-12T07:27:53;101506.28;;;19.93;100.00
71772;BME280;59606;52.138;5.424;2023-08-12T07:30:19;101502.66;;;19.94;100.00
71772;BME280;59606;52.138;5.424;2023-08-12T07:32:46;101508.69;;;19.96;100.00
71772;BME280;59606;52.138;5.424;2023-08-12T07:35:12;101497.25;;;19.95;100.00
71772;BME280;59606;52.138;5.424;2023-08-12T07:37:39;101495.44;;;19.96;100.00
71772;BME280;59606;52.138;5.424;2023-08-12T07:40:06;101492.66;;;19.97;100.00
71772;BME280;59606;52.138;5.424;2023-08-12T07:42:34;101496.03;;;19.99;100.00
71772;BME280;59606;52.138;5.424;2023-08-12T07:45:00;101481.81;;;20.00;100.00
71772;BME280;59606;52.138;5.424;2023-08-12T07:47:27;101488.09;;;19.99;100.00
71772;BME280;59606;52.138;5.424;2023-08-12T07:49:53;101486.53;;;19.97;100.00
71772;BME280;59606;52.138;5.424;2023-08-12T07:52:20;101491.97;;;19.95;100.00
71772;BME280;59606;52.138;5.424;2023-08-12T07:54:46;101485.72;;;19.96;100.00
71772;BME280;59606;52.138;5.424;2023-08-12T07:57:13;101482.91;;;19.98;100.00
71772;BME280;59606;52.138;5.424;2023-08-12T07:59:39;101485.44;;;19.99;100.00
71772;BME280;59606;52.138;5.424;2023-08-12T08:02:06;101490.75;;;19.99;100.00
71772;BME280;59606;52.138;5.424;2023-08-12T08:04:33;101494.22;;;20.00;100.00
71772;BME280;59606;52.138;5.424;2023-08-12T08:07:00;101487.94;;;20.01;100.00
71772;BME280;59606;52.138;5.424;2023-08-12T08:09:27;101496.13;;;19.98;100.00
71772;BME280;59606;52.138;5.424;2023-08-12T08:11:53;101497.13;;;19.97;100.00
71772;BME280;59606;52.138;5.424;2023-08-12T08:14:22;101491.00;;;19.96;100.00
71772;BME280;59606;52.138;5.424;2023-08-12T08:16:49;101496.28;;;19.96;100.00
71772;BME280;59606;52.138;5.424;2023-08-12T08:19:15;101494.22;;;20.00;100.00
71772;BME280;59606;52.138;5.424;2023-08-12T08:21:42;101500.34;;;20.00;100.00
71772;BME280;59606;52.138;5.424;2023-08-12T08:24:08;101492.41;;;20.00;100.00
71772;BME280;59606;52.138;5.424;2023-08-12T08:26:40;101498.28;;;20.04;100.00
71772;BME280;59606;52.138;5.424;2023-08-12T08:29:07;101488.41;;;20.06;100.00
71772;BME280;59606;52.138;5.424;2023-08-12T08:31:33;101494.97;;;20.12;100.00
71772;BME280;59606;52.138;5.424;2023-08-12T08:34:00;101486.41;;;20.19;100.00
71772;BME280;59606;52.138;5.424;2023-08-12T08:36:26;101487.94;;;20.22;100.00
71772;BME280;59606;52.138;5.424;2023-08-12T08:38:54;101495.59;;;20.25;100.00
71772;BME280;59606;52.138;5.424;2023-08-12T08:41:21;101500.78;;;20.27;100.00
71772;BME280;59606;52.138;5.424;2023-08-12T08:43:48;101501.47;;;20.29;100.00
71772;BME280;59606;52.138;5.424;2023-08-12T08:46:15;101504.25;;;20.27;100.00
71772;BME280;59606;52.138;5.424;2023-08-12T08:48:43;101502.34;;;20.29;100.00
71772;BME280;59606;52.138;5.424;2023-08-12T08:51:13;101503.16;;;20.30;100.00
71772;BME280;59606;52.138;5.424;2023-08-12T08:53:40;101505.69;;;20.31;100.00
71772;BME280;59606;52.138;5.424;2023-08-12T08:56:08;101510.13;;;20.31;100.00
71772;BME280;59606;52.138;5.424;2023-08-12T08:58:41;101515.84;;;20.26;100.00
71772;BME280;59606;52.138;5.424;2023-08-12T09:01:08;101520.53;;;20.22;100.00
71772;BME280;59606;52.138;5.424;2023-08-12T09:03:36;101521.06;;;20.16;100.00
71772;BME280;59606;52.138;5.424;2023-08-12T09:06:04;101525.06;;;20.11;100.00
71772;BME280;59606;52.138;5.424;2023-08-12T09:08:34;101541.44;;;20.05;100.00
71772;BME280;59606;52.138;5.424;2023-08-12T09:11:02;101552.91;;;19.94;100.00
71772;BME280;59606;52.138;5.424;2023-08-12T09:13:29;101559.75;;;19.75;100.00
71772;BME280;59606;52.138;5.424;2023-08-12T09:15:56;101558.69;;;19.55;100.00
71772;BME280;59606;52.138;5.424;2023-08-12T09:18:22;101564.63;;;19.37;100.00
71772;BME280;59606;52.138;5.424;2023-08-12T09:20:51;101567.53;;;19.22;100.00
71772;BME280;59606;52.138;5.424;2023-08-12T09:23:17;101560.91;;;19.17;100.00
71772;BME280;59606;52.138;5.424;2023-08-12T09:25:45;101537.28;;;19.15;100.00
71772;BME280;59606;52.138;5.424;2023-08-12T09:28:12;101531.03;;;19.16;100.00
71772;BME280;59606;52.138;5.424;2023-08-12T09:30:39;101530.06;;;19.28;100.00
71772;BME280;59606;52.138;5.424;2023-08-12T09:33:07;101542.06;;;19.33;100.00
71772;BME280;59606;52.138;5.424;2023-08-12T09:35:38;101544.94;;;19.29;100.00
71772;BME280;59606;52.138;5.424;2023-08-12T09:38:07;101557.28;;;19.40;100.00
71772;BME280;59606;52.138;5.424;2023-08-12T09:40:35;101551.78;;;19.32;100.00
71772;BME280;59606;52.138;5.424;2023-08-12T09:43:02;101566.44;;;19.25;100.00
71772;BME280;59606;52.138;5.424;2023-08-12T09:45:30;101570.38;;;19.30;100.00
71772;BME280;59606;52.138;5.424;2023-08-12T09:47:58;101576.25;;;19.34;100.00
71772;BME280;59606;52.138;5.424;2023-08-12T09:50:26;101586.72;;;19.36;100.00
71772;BME280;59606;52.138;5.424;2023-08-12T09:52:54;101569.16;;;19.35;100.00
71772;BME280;59606;52.138;5.424;2023-08-12T09:55:23;101579.50;;;19.49;100.00
71772;BME280;59606;52.138;5.424;2023-08-12T09:57:52;101592.81;;;19.59;100.00
71772;BME280;59606;52.138;5.424;2023-08-12T10:00:20;101603.47;;;19.68;100.00
71772;BME280;59606;52.138;5.424;2023-08-12T10:02:49;101593.28;;;19.64;100.00
71772;BME280;59606;52.138;5.424;2023-08-12T10:05:32;101591.69;;;19.61;100.00
71772;BME280;59606;52.138;5.424;2023-08-12T10:07:59;101596.16;;;19.61;100.00
71772;BME280;59606;52.138;5.424;2023-08-12T10:10:28;101599.03;;;19.58;100.00
71772;BME280;59606;52.138;5.424;2023-08-12T10:12:56;101593.03;;;19.67;100.00
71772;BME280;59606;52.138;5.424;2023-08-12T10:15:22;101588.63;;;19.88;100.00
71772;BME280;59606;52.138;5.424;2023-08-12T10:17:51;101572.16;;;20.17;100.00
71772;BME280;59606;52.138;5.424;2023-08-12T10:20:23;101560.31;;;20.32;100.00
71772;BME280;59606;52.138;5.424;2023-08-12T10:22:51;101580.16;;;20.47;100.00
71772;BME280;59606;52.138;5.424;2023-08-12T10:25:19;101578.69;;;20.55;100.00
71772;BME280;59606;52.138;5.424;2023-08-12T10:27:48;101577.41;;;20.70;100.00
71772;BME280;59606;52.138;5.424;2023-08-12T10:30:15;101582.28;;;20.75;100.00
71772;BME280;59606;52.138;5.424;2023-08-12T10:32:42;101573.66;;;20.82;100.00
71772;BME280;59606;52.138;5.424;2023-08-12T10:35:09;101583.25;;;21.04;99.42
71772;BME280;59606;52.138;5.424;2023-08-12T10:37:36;101584.72;;;21.28;100.00
71772;BME280;59606;52.138;5.424;2023-08-12T10:40:09;101571.94;;;21.42;94.71
71772;BME280;59606;52.138;5.424;2023-08-12T10:42:46;101576.88;;;21.57;92.06
71772;BME280;59606;52.138;5.424;2023-08-12T10:45:16;101586.06;;;21.43;90.59
71772;BME280;59606;52.138;5.424;2023-08-12T10:47:48;101576.63;;;21.29;92.23
71772;BME280;59606;52.138;5.424;2023-08-12T10:50:20;101590.13;;;21.16;89.90
71772;BME280;59606;52.138;5.424;2023-08-12T10:52:48;101586.63;;;21.06;94.22
71772;BME280;59606;52.138;5.424;2023-08-12T10:55:27;101590.66;;;21.10;92.22
71772;BME280;59606;52.138;5.424;2023-08-12T10:57:55;101579.38;;;21.18;93.61
71772;BME280;59606;52.138;5.424;2023-08-12T11:00:26;101583.66;;;21.40;92.92
71772;BME280;59606;52.138;5.424;2023-08-12T11:02:57;101588.00;;;21.41;92.57
71772;BME280;59606;52.138;5.424;2023-08-12T11:05:36;101581.44;;;21.45;92.42
71772;BME280;59606;52.138;5.424;2023-08-12T11:08:03;101586.19;;;21.51;88.57
71772;BME280;59606;52.138;5.424;2023-08-12T11:10:34;101585.91;;;21.54;91.51
71772;BME280;59606;52.138;5.424;2023-08-12T11:13:02;101582.84;;;21.69;87.94
71772;BME280;59606;52.138;5.424;2023-08-12T11:17:55;101588.59;;;21.74;87.58
71772;BME280;59606;52.138;5.424;2023-08-12T11:20:22;101582.03;;;21.68;85.63
71772;BME280;59606;52.138;5.424;2023-08-12T11:22:49;101592.38;;;21.81;84.84
71772;BME280;59606;52.138;5.424;2023-08-12T11:25:16;101577.56;;;21.88;86.32
71772;BME280;59606;52.138;5.424;2023-08-12T11:27:47;101576.59;;;21.99;85.87
71772;BME280;59606;52.138;5.424;2023-08-12T11:30:16;101563.03;;;22.02;86.10
71772;BME280;59606;52.138;5.424;2023-08-12T11:32:43;101570.59;;;22.16;80.89
71772;BME280;59606;52.138;5.424;2023-08-12T11:35:11;101566.53;;;22.22;76.77
71772;BME280;59606;52.138;5.424;2023-08-12T11:37:39;101581.47;;;22.23;75.68
71772;BME280;59606;52.138;5.424;2023-08-12T11:40:07;101572.56;;;22.24;74.94
71772;BME280;59606;52.138;5.424;2023-08-12T11:42:38;101570.28;;;22.39;76.54
71772;BME280;59606;52.138;5.424;2023-08-12T11:45:06;101577.50;;;22.46;73.97
71772;BME280;59606;52.138;5.424;2023-08-12T11:47:34;101570.53;;;22.45;70.53
71772;BME280;59606;52.138;5.424;2023-08-12T11:50:06;101567.88;;;22.45;73.78
71772;BME280;59606;52.138;5.424;2023-08-12T11:52:35;101579.31;;;22.55;75.97
71772;BME280;59606;52.138;5.424;2023-08-12T11:55:02;101569.94;;;22.61;74.41
71772;BME280;59606;52.138;5.424;2023-08-12T11:57:29;101572.97;;;22.76;78.01
71772;BME280;59606;52.138;5.424;2023-08-12T11:59:59;101573.34;;;22.91;71.85
71772;BME280;59606;52.138;5.424;2023-08-12T12:02:26;101571.81;;;22.88;72.08
71772;BME280;59606;52.138;5.424;2023-08-12T12:04:53;101569.25;;;22.96;73.15
71772;BME280;59606;52.138;5.424;2023-08-12T12:07:26;101573.25;;;23.10;75.12
71772;BME280;59606;52.138;5.424;2023-08-12T12:09:54;101573.34;;;22.91;74.19
71772;BME280;59606;52.138;5.424;2023-08-12T12:12:24;101572.22;;;22.83;75.08
71772;BME280;59606;52.138;5.424;2023-08-12T12:14:52;101568.56;;;23.04;74.47
71772;BME280;59606;52.138;5.424;2023-08-12T12:17:22;101576.25;;;23.25;73.44
71772;BME280;59606;52.138;5.424;2023-08-12T12:19:55;101574.63;;;23.42;73.50
71772;BME280;59606;52.138;5.424;2023-08-12T12:22:31;101577.28;;;23.60;73.66
71772;BME280;59606;52.138;5.424;2023-08-12T12:25:06;101575.28;;;23.71;72.13
71772;BME280;59606;52.138;5.424;2023-08-12T12:27:34;101570.50;;;23.75;67.65
71772;BME280;59606;52.138;5.424;2023-08-12T12:30:01;101574.22;;;23.82;69.00
71772;BME280;59606;52.138;5.424;2023-08-12T12:32:27;101577.47;;;23.94;67.44
71772;BME280;59606;52.138;5.424;2023-08-12T12:34:54;101572.22;;;24.02;66.46
71772;BME280;59606;52.138;5.424;2023-08-12T12:37:21;101580.66;;;24.15;67.17
71772;BME280;59606;52.138;5.424;2023-08-12T12:39:48;101579.44;;;24.10;68.62
71772;BME280;59606;52.138;5.424;2023-08-12T12:42:14;101586.66;;;23.99;64.02
71772;BME280;59606;52.138;5.424;2023-08-12T12:44:41;101583.72;;;23.85;65.66
71772;BME280;59606;52.138;5.424;2023-08-12T12:47:07;101582.66;;;23.95;68.90
71772;BME280;59606;52.138;5.424;2023-08-12T12:49:37;101572.91;;;23.86;65.05
71772;BME280;59606;52.138;5.424;2023-08-12T12:52:04;101580.06;;;23.86;66.17
71772;BME280;59606;52.138;5.424;2023-08-12T12:54:30;101573.59;;;23.88;65.12
71772;BME280;59606;52.138;5.424;2023-08-12T12:56:57;101573.53;;;23.98;65.01